Member area
Imprimable
Dinant, 29/08/2021, BEL - La Descente de la Lesse
List of reports > Delhalle - 20.75km - Result
Search: Page: [1]
58 Entries
 
Complains are not accepted anymore. Results are final.
PlaceNrNameAgeNATLeagueTeamRealTimeTkmMoy.ScrPtsCity
1.12BULTOT CHRISTIAN63BELARCH1:29:061:29:064:18 13.9733922SCHALTIN
2.241COLLARD JOSÉ61BELGAG1:33:021:33:024:29 13.3856866GRAND-LEEZ
3.6517CADO PAUL61BELTEAM BRASSEUR1:36:531:36:534:41 12.8575815BALATRE
4.2088RIVEZ PIERRE64BELACTELA THURE1:37:021:37:024:41 12.8378811SARS-LA-BUISSIERE
5.5465RICHARD ANDRÉ67BELARCH1:38:531:38:534:46 12.5995782SAINT-SERVAIS (NAMUR)
6.6390DUBOIS MARC60BELJCPMF WANFER-BAULET1:43:091:43:094:59 12.07129720KEUMIEE
7.6394WATTIEZ DIDIER60BEL1:45:071:45:075:04 11.85143693HONNELLES
8.6345BARBIEUX PATRICE64BEL1:47:041:47:045:10 11.63157667MALONNE
9.5575SOUMAGNE FRANCIS69BELGERPIN1:47:421:47:425:12 11.56162658MARCINELLE
10.494MATHY JEAN-LUC68BELRCNAMUR1:50:491:50:495:21 11.23190613NAMUR
11.492DERAVET BERNARD62BELLES PAHAUTS D'ELITE1:51:281:51:285:23 11.17192606DURNAL
12.6328GOOSSE GERARD69BEL1:54:071:54:075:30 10.91221566HATRIVAL
13.623PISCART PIERRE61BELMOHAFORESTIERE1:54:141:54:145:31 10.90223563OBOURG
14.6466ROSILLON DOMINIQUE64BELARCH1:54:191:54:195:31 10.89225561SORÉE
15.5545COLOMBO SERGIO61ITARCNAMUR1:54:381:54:385:32 10.86230556SCLAYN
16.6525RAMET EMMANUEL61BELRUNNINRUNNIN'GREZ1:57:171:57:175:40 10.62257517GREZ-DOICEAU
17.537ROBILLARD THIBERT65BELRCNAMUR1:57:521:57:525:41 10.56262509NAMUR
18.5587NEVEU ALAIN65FRA1:58:001:58:005:42 10.55266505MEDIS
19.6291GOFFIN PASCAL62BEL1:59:581:59:585:47 10.38288476MARIEMBOURG
20.194AUBERT SERGE66BELCHUDONDORGANES2:00:032:00:035:48 10.37289474GERPINNES
21.464VIDICK JEAN-LUC68BELMYSTERE2:00:232:00:235:49 10.34293469LA ROCHE-EN-ARDENNE
22.5705COLMANT OLIVIER63BELJE COURS À INCOURT2:01:512:01:515:53 10.22309447INCOURT
23.6389GOLARD ALAIN62BELJCPMF WANFER-BAULET2:01:572:01:575:53 10.21310446WANFERCEE-BAULET
24.5600SAELMACKERS MICHEL64BELRC METTET2:02:402:02:405:55 10.15317436METTET
25.6298EVRARD JEAN-LUC65BEL2:02:412:02:415:55 10.15318435HAVELANGE
26.621DEWEZ ALEX65BEL2:03:492:03:495:58 10.06332418ERPENT
27.449MARCHAL PATRICK60BELGAG2:03:582:03:585:59 10.04334416GEMBLOUX
28.6575DEBAY MICHEL62BEL2:04:142:04:146:00 10.02336412GERPINNES
29.296DESSEILLE ERNEST67BELRCNAMUR2:04:162:04:166:00 10.02337411WÉPION
30.6532VANDEVEN ANDRE65FRA2:05:352:05:356:04 9.91342398HAYBES
31.5633BACHELET JEAN-PIERRE60FRAM.M.M.2:06:352:06:356:07 9.84348387RONCQ
32.6295DUPONT BAUDOUIN60BELRC NAMUR2:07:042:07:046:08 9.80352381BRUMAGNE
33.5707QUINTIN JEAN-JACQUES60BEL2:08:102:08:106:11 9.72360367INCOURT
34.5591DECROIX MARC62BELCEPALCEPAL2:09:472:09:476:16 9.59370349AUDERGHE
35.6429VERDONCK BASILE63BELSTIMUL'US2:10:082:10:086:17 9.57372345JAUCHELETTE
36.6516LEROY LUC60BELZONARDS2:10:132:10:136:17 9.56373344THUIN
37.5712GILLET YVES62BEL2:11:122:11:126:20 9.49382331VISE
38.6428BONNET PIERRE62BEL2:11:592:11:596:22 9.43389321LIÈGE ANGLEUR
39.6533TOUSSAINT PATRICK68FRA2:12:172:12:176:23 9.41394316FEPIN
40.6283DE SCHAMPHELEER DIDIER61BEL2:12:212:12:216:23 9.41395314LISOGNE
41.5576CEUPPENS PATRICK65BEL2:13:382:13:386:27 9.32406298HALLE
42.127GRANDMONT ANDRÉ60BELARCHARCH2:15:082:15:086:31 9.21416281DINANT
43.992LETHÉ VINCENT61BELRONVAU2:17:102:17:106:37 9.08435255GRAND-MANIL
44.6288JANSSENS PHILIPPE67BEL2:17:402:17:406:39 9.04444246WALCOURT
45.770LEBRUN THIERRY63BELRCNAMUR2:19:032:19:036:43 8.95451232DAVE
46.6359VANDEZANDE LUC65BELNAMUR2:19:152:19:156:43 8.94455228SART-BERNARD (ASSESSE)
47.6506TASSET PHILIPPE61BELJAMES2:22:052:22:056:51 8.76471199OTTIGNIES-LOUVAIN-LA-NEUV
48.6629SAUBLAINS ALAIN62BELMYSTERE2:24:032:24:036:57 8.64476182X
49.203ALBERT MICHEL60BELRCNAMUR2:25:502:25:507:02 8.54483166NAMECHE
50.172SEPULCHRE MICHAËL65BEL2:25:542:25:547:02 8.53484165RÊVES
51.6304LÉNAERTS RAYMOND62BELWACO2:26:232:26:237:04 8.51486160GEER
52.6448BOURGAUX ROGER61BEL2:27:132:27:137:06 8.46491152TRAZEGNIES
53.6557RYPENS ARNOLD69BEL2:29:282:29:287:13 8.33500132RUMST
54.6561GUIOT MARC61BELJCPMF EGHEZÉE2:32:092:32:097:20 8.18507110EGHEZÉE
55.491BEAUDOT MARC62BELLBFAARCH2:45:262:45:267:59 7.5353710CINEY
56.6337GRANDCHAMPS ALEXANDRE66BEL2:46:552:46:558:03 7.465385OUFFET
57.5657DESPEGHEL BENOÎT63BELTEAM MARATHON2:48:532:48:538:09 7.375394DINAANT
58.8ANTOINE ALAIN60BELRCNAMUR3:01:163:01:168:45 6.875432TEMPLOUX
DNF: did not finish; DSQ: disqualified; Speed in km/h
Page: [1]